Terminal Aerodrome Forecast
Issued by NWS Jackson, MS

Home | Current Version | Previous Version | Text Only | Print | Product List | Glossary On
Versions: 1 2 3 4 5 6 7 8 9 10 11 12 13 14 15 16 17 18 19 20 21 22 23 24
000
FTUS44 KJAN 211400 AAB
TAFJAN
TAF AMD
KJAN 211459Z 2115/2212 18008KT P6SM SCT009 SCT250
     FM211700 18005KT P6SM SCT005 SCT050
     FM220000 19004KT P6SM FEW050 SCT120
     FM220900 20005KT 6SM -SHRA BR BKN025 OVC100=

USA.gov is the U.S. government's official web portal to all federal, state and local government web resources and services.